sensor_id;sensor_type;location;lat;lon;timestamp;pressure;altitude;pressure_sealevel;temperature;humidity
61292;BME280;47165;42.664;23.368;2023-05-29T00:00:31;94790.91;;;17.34;63.76
61292;BME280;47165;42.664;23.368;2023-05-29T00:02:57;94790.34;;;17.30;62.68
61292;BME280;47165;42.664;23.368;2023-05-29T00:05:22;94793.56;;;17.03;64.02
61292;BME280;47165;42.664;23.368;2023-05-29T00:07:47;94796.75;;;16.76;64.69
61292;BME280;47165;42.664;23.368;2023-05-29T00:10:15;94791.91;;;16.81;65.41
61292;BME280;47165;42.664;23.368;2023-05-29T00:12:41;94792.34;;;16.65;65.23
61292;BME280;47165;42.664;23.368;2023-05-29T00:15:08;94791.00;;;16.70;65.59
61292;BME280;47165;42.664;23.368;2023-05-29T00:17:35;94793.41;;;16.74;65.97
61292;BME280;47165;42.664;23.368;2023-05-29T00:20:03;94804.59;;;16.87;65.06
61292;BME280;47165;42.664;23.368;2023-05-29T00:22:35;94795.56;;;16.89;65.28
61292;BME280;47165;42.664;23.368;2023-05-29T00:25:05;94799.78;;;17.02;64.85
61292;BME280;47165;42.664;23.368;2023-05-29T00:27:31;94798.72;;;17.04;65.00
61292;BME280;47165;42.664;23.368;2023-05-29T00:29:58;94797.03;;;17.03;64.82
61292;BME280;47165;42.664;23.368;2023-05-29T00:32:23;94798.72;;;17.04;64.28
61292;BME280;47165;42.664;23.368;2023-05-29T00:34:49;94795.50;;;17.01;63.78
61292;BME280;47165;42.664;23.368;2023-05-29T00:37:15;94793.41;;;16.74;64.24
61292;BME280;47165;42.664;23.368;2023-05-29T00:39:40;94800.72;;;16.70;65.23
61292;BME280;47165;42.664;23.368;2023-05-29T00:42:06;94791.41;;;16.66;65.33
61292;BME280;47165;42.664;23.368;2023-05-29T00:44:31;94794.47;;;16.50;65.46
61292;BME280;47165;42.664;23.368;2023-05-29T00:46:57;94803.38;;;16.49;65.79
61292;BME280;47165;42.664;23.368;2023-05-29T00:49:24;94797.19;;;16.39;65.69
61292;BME280;47165;42.664;23.368;2023-05-29T00:51:51;94777.78;;;16.40;66.33
61292;BME280;47165;42.664;23.368;2023-05-29T00:54:21;94789.28;;;16.39;66.00
61292;BME280;47165;42.664;23.368;2023-05-29T00:56:48;94792.25;;;16.45;66.41
61292;BME280;47165;42.664;23.368;2023-05-29T00:59:14;94789.00;;;16.42;65.81
61292;BME280;47165;42.664;23.368;2023-05-29T01:01:42;94789.59;;;16.24;66.43
61292;BME280;47165;42.664;23.368;2023-05-29T01:04:09;94782.84;;;16.32;67.08
61292;BME280;47165;42.664;23.368;2023-05-29T01:06:37;94775.41;;;16.37;66.29
61292;BME280;47165;42.664;23.368;2023-05-29T01:09:03;94779.19;;;16.44;65.60
61292;BME280;47165;42.664;23.368;2023-05-29T01:11:55;94783.31;;;16.58;64.56
61292;BME280;47165;42.664;23.368;2023-05-29T01:14:36;94779.19;;;16.44;64.95
61292;BME280;47165;42.664;23.368;2023-05-29T01:17:21;94778.78;;;16.48;65.89
61292;BME280;47165;42.664;23.368;2023-05-29T01:25:21;94788.56;;;16.58;63.92
61292;BME280;47165;42.664;23.368;2023-05-29T01:27:49;94784.22;;;16.47;64.17
61292;BME280;47165;42.664;23.368;2023-05-29T01:30:15;94785.34;;;16.54;64.18
61292;BME280;47165;42.664;23.368;2023-05-29T01:32:42;94783.94;;;16.50;64.37
61292;BME280;47165;42.664;23.368;2023-05-29T01:35:08;94784.72;;;16.41;64.01
61292;BME280;47165;42.664;23.368;2023-05-29T01:37:34;94786.47;;;16.31;64.69
61292;BME280;47165;42.664;23.368;2023-05-29T01:39:59;94788.22;;;16.30;64.85
61292;BME280;47165;42.664;23.368;2023-05-29T01:42:27;94780.78;;;16.35;65.23
61292;BME280;47165;42.664;23.368;2023-05-29T01:44:55;94777.56;;;16.32;64.79
61292;BME280;47165;42.664;23.368;2023-05-29T01:47:21;94788.50;;;15.95;66.26
61292;BME280;47165;42.664;23.368;2023-05-29T01:49:48;94788.59;;;15.72;66.78
61292;BME280;47165;42.664;23.368;2023-05-29T01:52:15;94790.06;;;15.42;68.53
61292;BME280;47165;42.664;23.368;2023-05-29T01:54:40;94779.53;;;15.42;68.21
61292;BME280;47165;42.664;23.368;2023-05-29T01:57:06;94784.53;;;15.45;68.54
61292;BME280;47165;42.664;23.368;2023-05-29T01:59:32;94786.22;;;15.46;68.63
61292;BME280;47165;42.664;23.368;2023-05-29T02:02:05;94788.09;;;15.56;68.67
61292;BME280;47165;42.664;23.368;2023-05-29T02:04:31;94774.63;;;15.49;68.60
61292;BME280;47165;42.664;23.368;2023-05-29T02:06:56;94780.34;;;15.54;69.48
61292;BME280;47165;42.664;23.368;2023-05-29T02:09:23;94780.69;;;15.61;69.17
61292;BME280;47165;42.664;23.368;2023-05-29T02:11:48;94780.69;;;15.61;68.69
61292;BME280;47165;42.664;23.368;2023-05-29T02:14:14;94780.78;;;15.70;68.45
61292;BME280;47165;42.664;23.368;2023-05-29T02:16:39;94780.91;;;15.80;68.13
61292;BME280;47165;42.664;23.368;2023-05-29T02:19:06;94774.31;;;15.86;68.42
61292;BME280;47165;42.664;23.368;2023-05-29T02:21:31;94771.78;;;15.84;68.46
61292;BME280;47165;42.664;23.368;2023-05-29T02:23:57;94776.00;;;15.76;68.33
61292;BME280;47165;42.664;23.368;2023-05-29T02:26:22;94775.41;;;15.72;67.41
61292;BME280;47165;42.664;23.368;2023-05-29T02:28:48;94776.84;;;15.76;66.81
61292;BME280;47165;42.664;23.368;2023-05-29T02:31:13;94772.38;;;15.88;68.04
61292;BME280;47165;42.664;23.368;2023-05-29T02:33:39;94779.66;;;15.96;67.08
61292;BME280;47165;42.664;23.368;2023-05-29T02:36:04;94781.78;;;16.02;67.48
61292;BME280;47165;42.664;23.368;2023-05-29T02:38:35;94781.19;;;15.98;65.56
61292;BME280;47165;42.664;23.368;2023-05-29T02:41:01;94785.63;;;15.98;65.68
61292;BME280;47165;42.664;23.368;2023-05-29T02:43:26;94775.72;;;15.90;66.19
61292;BME280;47165;42.664;23.368;2023-05-29T02:45:52;94785.59;;;16.09;65.99
61292;BME280;47165;42.664;23.368;2023-05-29T02:48:17;94782.81;;;16.11;66.39
61292;BME280;47165;42.664;23.368;2023-05-29T02:50:43;94788.47;;;16.06;66.79
61292;BME280;47165;42.664;23.368;2023-05-29T02:53:08;94782.50;;;16.04;65.20
61292;BME280;47165;42.664;23.368;2023-05-29T02:55:33;94784.66;;;15.99;65.76
61292;BME280;47165;42.664;23.368;2023-05-29T02:58:01;94788.22;;;15.65;67.87
61292;BME280;47165;42.664;23.368;2023-05-29T03:00:26;94787.38;;;15.65;68.20
61292;BME280;47165;42.664;23.368;2023-05-29T03:02:54;94788.09;;;15.67;67.94
61292;BME280;47165;42.664;23.368;2023-05-29T03:05:20;94792.03;;;15.73;68.66
61292;BME280;47165;42.664;23.368;2023-05-29T03:07:45;94792.25;;;15.81;67.83
61292;BME280;47165;42.664;23.368;2023-05-29T03:10:11;94787.09;;;15.91;67.69
61292;BME280;47165;42.664;23.368;2023-05-29T03:12:37;94801.72;;;15.83;68.48
61292;BME280;47165;42.664;23.368;2023-05-29T03:15:03;94793.34;;;15.78;68.57
61292;BME280;47165;42.664;23.368;2023-05-29T03:17:28;94792.13;;;15.82;68.15
61292;BME280;47165;42.664;23.368;2023-05-29T03:19:54;94796.69;;;15.80;67.93
61292;BME280;47165;42.664;23.368;2023-05-29T03:22:19;94792.97;;;15.72;68.59
61292;BME280;47165;42.664;23.368;2023-05-29T03:24:45;94789.19;;;15.76;68.49
61292;BME280;47165;42.664;23.368;2023-05-29T03:27:10;94793.84;;;15.83;68.25
61292;BME280;47165;42.664;23.368;2023-05-29T03:29:36;94794.53;;;15.85;68.39
61292;BME280;47165;42.664;23.368;2023-05-29T03:32:01;94800.13;;;15.92;69.02
61292;BME280;47165;42.664;23.368;2023-05-29T03:34:27;94805.28;;;15.94;68.29
61292;BME280;47165;42.664;23.368;2023-05-29T03:36:53;94800.38;;;15.89;68.02
61292;BME280;47165;42.664;23.368;2023-05-29T03:39:19;94812.19;;;16.06;67.73
61292;BME280;47165;42.664;23.368;2023-05-29T03:41:44;94808.38;;;15.99;67.56
61292;BME280;47165;42.664;23.368;2023-05-29T03:44:09;94826.56;;;16.02;68.31
61292;BME280;47165;42.664;23.368;2023-05-29T03:46:35;94814.97;;;15.93;68.00
61292;BME280;47165;42.664;23.368;2023-05-29T03:49:00;94821.78;;;15.96;68.09
61292;BME280;47165;42.664;23.368;2023-05-29T03:51:26;94824.28;;;15.97;68.53
61292;BME280;47165;42.664;23.368;2023-05-29T03:53:51;94829.66;;;16.07;68.59
61292;BME280;47165;42.664;23.368;2023-05-29T03:56:17;94812.63;;;16.11;68.33
61292;BME280;47165;42.664;23.368;2023-05-29T03:58:42;94825.28;;;16.28;67.93
61292;BME280;47165;42.664;23.368;2023-05-29T04:01:08;94818.94;;;16.20;67.83
61292;BME280;47165;42.664;23.368;2023-05-29T04:03:34;94818.59;;;16.13;68.34
61292;BME280;47165;42.664;23.368;2023-05-29T04:06:00;94829.81;;;16.26;68.36
61292;BME280;47165;42.664;23.368;2023-05-29T04:08:26;94827.09;;;16.17;68.76
61292;BME280;47165;42.664;23.368;2023-05-29T04:10:51;94834.59;;;16.33;69.22
61292;BME280;47165;42.664;23.368;2023-05-29T04:13:19;94839.91;;;16.42;68.71
61292;BME280;47165;42.664;23.368;2023-05-29T04:15:45;94842.63;;;16.52;68.25
61292;BME280;47165;42.664;23.368;2023-05-29T04:18:10;94842.00;;;16.60;69.21
61292;BME280;47165;42.664;23.368;2023-05-29T04:20:36;94838.72;;;16.67;69.57
61292;BME280;47165;42.664;23.368;2023-05-29T04:23:01;94842.38;;;16.76;69.70
61292;BME280;47165;42.664;23.368;2023-05-29T04:25:26;94842.59;;;16.84;69.18
61292;BME280;47165;42.664;23.368;2023-05-29T04:27:52;94835.28;;;16.88;69.05
61292;BME280;47165;42.664;23.368;2023-05-29T04:30:17;94836.72;;;17.02;67.61
61292;BME280;47165;42.664;23.368;2023-05-29T04:32:43;94841.22;;;17.11;68.41
61292;BME280;47165;42.664;23.368;2023-05-29T04:35:09;94841.53;;;17.18;68.15
61292;BME280;47165;42.664;23.368;2023-05-29T04:37:35;94837.84;;;17.30;67.57
61292;BME280;47165;42.664;23.368;2023-05-29T04:40:08;94842.47;;;17.38;67.58
61292;BME280;47165;42.664;23.368;2023-05-29T04:42:37;94845.28;;;17.46;68.00
61292;BME280;47165;42.664;23.368;2023-05-29T04:45:03;94844.16;;;17.48;67.97
61292;BME280;47165;42.664;23.368;2023-05-29T04:47:33;94838.88;;;17.48;68.80
61292;BME280;47165;42.664;23.368;2023-05-29T04:49:59;94841.00;;;17.55;68.65
61292;BME280;47165;42.664;23.368;2023-05-29T04:52:25;94839.75;;;17.59;68.74
61292;BME280;47165;42.664;23.368;2023-05-29T04:54:51;94851.06;;;17.70;68.30
61292;BME280;47165;42.664;23.368;2023-05-29T04:57:17;94847.59;;;17.80;67.91
61292;BME280;47165;42.664;23.368;2023-05-29T04:59:43;94856.97;;;17.94;67.45
61292;BME280;47165;42.664;23.368;2023-05-29T05:02:08;94860.06;;;17.99;67.00
61292;BME280;47165;42.664;23.368;2023-05-29T05:04:33;94865.34;;;18.08;67.22
61292;BME280;47165;42.664;23.368;2023-05-29T05:06:59;94870.38;;;18.21;66.79
61292;BME280;47165;42.664;23.368;2023-05-29T05:09:24;94869.84;;;18.27;66.67
61292;BME280;47165;42.664;23.368;2023-05-29T05:11:50;94873.03;;;18.31;67.71
61292;BME280;47165;42.664;23.368;2023-05-29T05:14:15;94879.56;;;18.37;67.38
61292;BME280;47165;42.664;23.368;2023-05-29T05:16:40;94869.44;;;18.42;66.54
61292;BME280;47165;42.664;23.368;2023-05-29T05:19:06;94877.91;;;18.55;66.43
61292;BME280;47165;42.664;23.368;2023-05-29T05:21:31;94882.25;;;18.56;65.56
61292;BME280;47165;42.664;23.368;2023-05-29T05:23:58;94875.28;;;18.65;64.91
61292;BME280;47165;42.664;23.368;2023-05-29T05:26:23;94871.94;;;18.73;64.26
61292;BME280;47165;42.664;23.368;2023-05-29T05:28:49;94871.63;;;18.76;65.10
61292;BME280;47165;42.664;23.368;2023-05-29T05:31:14;94878.34;;;18.80;65.52
61292;BME280;47165;42.664;23.368;2023-05-29T05:33:40;94874.72;;;18.90;64.74
61292;BME280;47165;42.664;23.368;2023-05-29T05:36:05;94882.94;;;18.97;65.00
61292;BME280;47165;42.664;23.368;2023-05-29T05:38:31;94880.00;;;19.00;65.21
61292;BME280;47165;42.664;23.368;2023-05-29T05:40:57;94874.00;;;19.08;64.27
61292;BME280;47165;42.664;23.368;2023-05-29T05:43:22;94872.59;;;19.14;64.59
61292;BME280;47165;42.664;23.368;2023-05-29T05:45:48;94878.53;;;19.25;63.49
61292;BME280;47165;42.664;23.368;2023-05-29T05:48:13;94879.09;;;19.29;63.76
61292;BME280;47165;42.664;23.368;2023-05-29T05:50:39;94870.88;;;19.32;63.65
61292;BME280;47165;42.664;23.368;2023-05-29T05:53:04;94877.25;;;19.39;62.25
61292;BME280;47165;42.664;23.368;2023-05-29T05:55:29;94877.13;;;19.41;62.03
61292;BME280;47165;42.664;23.368;2023-05-29T05:57:55;94877.00;;;19.33;61.88
61292;BME280;47165;42.664;23.368;2023-05-29T06:00:23;94880.91;;;19.38;62.68
61292;BME280;47165;42.664;23.368;2023-05-29T06:02:49;94875.72;;;19.46;62.04
61292;BME280;47165;42.664;23.368;2023-05-29T06:05:14;94875.97;;;19.53;61.60
61292;BME280;47165;42.664;23.368;2023-05-29T06:07:40;94880.13;;;19.56;61.67
61292;BME280;47165;42.664;23.368;2023-05-29T06:10:06;94868.00;;;19.53;61.19
61292;BME280;47165;42.664;23.368;2023-05-29T06:12:31;94873.56;;;19.60;61.81
61292;BME280;47165;42.664;23.368;2023-05-29T06:14:56;94872.88;;;19.58;62.07
61292;BME280;47165;42.664;23.368;2023-05-29T06:17:22;94877.00;;;19.70;61.58
61292;BME280;47165;42.664;23.368;2023-05-29T06:19:49;94886.22;;;19.76;61.77
61292;BME280;47165;42.664;23.368;2023-05-29T06:22:14;94888.88;;;19.76;61.60
61292;BME280;47165;42.664;23.368;2023-05-29T06:24:40;94883.16;;;19.70;61.60
61292;BME280;47165;42.664;23.368;2023-05-29T06:27:06;94889.56;;;19.78;61.40
61292;BME280;47165;42.664;23.368;2023-05-29T06:29:32;94891.25;;;19.69;61.39
61292;BME280;47165;42.664;23.368;2023-05-29T06:31:57;94887.28;;;19.83;61.22
61292;BME280;47165;42.664;23.368;2023-05-29T06:34:23;94887.69;;;19.88;60.88
61292;BME280;47165;42.664;23.368;2023-05-29T06:36:48;94885.59;;;19.92;60.56
61292;BME280;47165;42.664;23.368;2023-05-29T06:39:14;94892.16;;;19.87;60.19
61292;BME280;47165;42.664;23.368;2023-05-29T06:41:40;94887.34;;;20.01;60.24
61292;BME280;47165;42.664;23.368;2023-05-29T06:44:05;94884.03;;;20.17;60.64
61292;BME280;47165;42.664;23.368;2023-05-29T06:46:31;94883.38;;;20.33;59.92
61292;BME280;47165;42.664;23.368;2023-05-29T06:48:56;94879.47;;;20.37;59.56
61292;BME280;47165;42.664;23.368;2023-05-29T06:51:22;94878.09;;;20.33;59.50
61292;BME280;47165;42.664;23.368;2023-05-29T06:53:47;94881.72;;;20.32;59.00
61292;BME280;47165;42.664;23.368;2023-05-29T06:56:13;94880.59;;;20.52;58.56
61292;BME280;47165;42.664;23.368;2023-05-29T06:58:38;94884.34;;;20.59;58.33
61292;BME280;47165;42.664;23.368;2023-05-29T07:01:04;94883.97;;;20.72;57.22
61292;BME280;47165;42.664;23.368;2023-05-29T07:03:30;94887.22;;;20.84;56.14
61292;BME280;47165;42.664;23.368;2023-05-29T07:05:55;94876.00;;;20.72;56.09
61292;BME280;47165;42.664;23.368;2023-05-29T07:08:22;94883.19;;;20.80;56.94
61292;BME280;47165;42.664;23.368;2023-05-29T07:10:47;94882.19;;;20.81;56.60
61292;BME280;47165;42.664;23.368;2023-05-29T07:13:15;94888.59;;;20.88;55.54
61292;BME280;47165;42.664;23.368;2023-05-29T07:15:40;94883.63;;;20.75;54.51
61292;BME280;47165;42.664;23.368;2023-05-29T07:18:06;94887.31;;;20.46;55.02
61292;BME280;47165;42.664;23.368;2023-05-29T07:20:31;94885.09;;;20.69;54.77
61292;BME280;47165;42.664;23.368;2023-05-29T07:22:57;94890.00;;;20.64;55.04
61292;BME280;47165;42.664;23.368;2023-05-29T07:25:22;94881.16;;;20.74;55.79
61292;BME280;47165;42.664;23.368;2023-05-29T07:27:47;94881.44;;;20.70;55.24
61292;BME280;47165;42.664;23.368;2023-05-29T07:30:13;94881.81;;;20.94;54.99
61292;BME280;47165;42.664;23.368;2023-05-29T07:32:39;94880.56;;;21.06;54.54
61292;BME280;47165;42.664;23.368;2023-05-29T07:35:04;94876.13;;;21.06;55.29
61292;BME280;47165;42.664;23.368;2023-05-29T07:37:30;94886.72;;;21.06;54.57
61292;BME280;47165;42.664;23.368;2023-05-29T07:39:57;94886.91;;;21.31;54.53
61292;BME280;47165;42.664;23.368;2023-05-29T07:42:22;94879.44;;;21.35;54.40
61292;BME280;47165;42.664;23.368;2023-05-29T07:44:47;94876.03;;;21.42;53.94
61292;BME280;47165;42.664;23.368;2023-05-29T07:47:13;94878.47;;;21.62;52.81
61292;BME280;47165;42.664;23.368;2023-05-29T07:49:38;94878.63;;;21.60;53.07
61292;BME280;47165;42.664;23.368;2023-05-29T07:52:04;94877.03;;;21.76;51.96
61292;BME280;47165;42.664;23.368;2023-05-29T07:54:31;94872.84;;;21.65;52.45
61292;BME280;47165;42.664;23.368;2023-05-29T07:57:00;94869.28;;;21.82;52.17
61292;BME280;47165;42.664;23.368;2023-05-29T07:59:28;94874.81;;;21.97;52.25
61292;BME280;47165;42.664;23.368;2023-05-29T08:01:54;94870.97;;;21.92;52.54
61292;BME280;47165;42.664;23.368;2023-05-29T08:04:23;94871.53;;;22.12;52.22
61292;BME280;47165;42.664;23.368;2023-05-29T08:06:50;94887.06;;;22.24;52.90
61292;BME280;47165;42.664;23.368;2023-05-29T08:09:16;94878.09;;;22.25;52.23
61292;BME280;47165;42.664;23.368;2023-05-29T08:11:42;94873.88;;;22.23;52.17
61292;BME280;47165;42.664;23.368;2023-05-29T08:14:10;94881.09;;;22.30;52.21
61292;BME280;47165;42.664;23.368;2023-05-29T08:16:36;94879.63;;;22.44;51.67
61292;BME280;47165;42.664;23.368;2023-05-29T08:19:01;94881.66;;;22.50;51.03
61292;BME280;47165;42.664;23.368;2023-05-29T08:21:27;94891.78;;;22.55;51.28
61292;BME280;47165;42.664;23.368;2023-05-29T08:23:52;94876.16;;;22.44;51.45
61292;BME280;47165;42.664;23.368;2023-05-29T08:26:18;94874.31;;;22.44;51.09
61292;BME280;47165;42.664;23.368;2023-05-29T08:28:43;94887.38;;;22.21;51.51
61292;BME280;47165;42.664;23.368;2023-05-29T08:31:09;94890.41;;;22.26;50.65
61292;BME280;47165;42.664;23.368;2023-05-29T08:33:34;94888.44;;;22.45;50.27
61292;BME280;47165;42.664;23.368;2023-05-29T08:36:01;94888.47;;;22.53;50.78
61292;BME280;47165;42.664;23.368;2023-05-29T08:38:27;94897.13;;;22.63;50.66
61292;BME280;47165;42.664;23.368;2023-05-29T08:40:54;94879.13;;;22.41;50.59
61292;BME280;47165;42.664;23.368;2023-05-29T08:43:22;94877.63;;;22.38;50.53
61292;BME280;47165;42.664;23.368;2023-05-29T08:45:55;94881.31;;;22.62;51.65
61292;BME280;47165;42.664;23.368;2023-05-29T08:48:24;94865.88;;;22.74;49.62
61292;BME280;47165;42.664;23.368;2023-05-29T08:50:53;94863.88;;;23.00;49.89
61292;BME280;47165;42.664;23.368;2023-05-29T08:53:21;94863.06;;;23.08;48.49
61292;BME280;47165;42.664;23.368;2023-05-29T08:55:47;94865.19;;;23.29;48.63
61292;BME280;47165;42.664;23.368;2023-05-29T08:58:14;94858.53;;;23.33;48.05
61292;BME280;47165;42.664;23.368;2023-05-29T09:00:39;94866.88;;;23.38;49.49
61292;BME280;47165;42.664;23.368;2023-05-29T09:03:06;94850.88;;;23.38;47.84
61292;BME280;47165;42.664;23.368;2023-05-29T09:05:32;94855.03;;;23.33;45.76
61292;BME280;47165;42.664;23.368;2023-05-29T09:07:58;94849.84;;;23.47;45.29
61292;BME280;47165;42.664;23.368;2023-05-29T09:10:24;94848.19;;;23.55;45.80
61292;BME280;47165;42.664;23.368;2023-05-29T09:12:51;94848.97;;;23.63;45.83
61292;BME280;47165;42.664;23.368;2023-05-29T09:15:19;94844.13;;;23.67;44.16
61292;BME280;47165;42.664;23.368;2023-05-29T09:17:57;94845.94;;;23.75;44.84
61292;BME280;47165;42.664;23.368;2023-05-29T09:20:24;94844.75;;;23.94;44.82
61292;BME280;47165;42.664;23.368;2023-05-29T09:25:21;94814.53;;;23.93;43.97
61292;BME280;47165;42.664;23.368;2023-05-29T09:27:51;94816.97;;;24.11;43.39
61292;BME280;47165;42.664;23.368;2023-05-29T09:30:35;94821.16;;;24.37;43.51
61292;BME280;47165;42.664;23.368;2023-05-29T09:33:02;94821.75;;;24.47;42.80
61292;BME280;47165;42.664;23.368;2023-05-29T09:35:45;94818.56;;;24.75;42.74
61292;BME280;47165;42.664;23.368;2023-05-29T09:38:13;94816.69;;;24.60;41.54
61292;BME280;47165;42.664;23.368;2023-05-29T09:40:39;94815.56;;;24.23;40.47
61292;BME280;47165;42.664;23.368;2023-05-29T09:43:09;94804.84;;;24.32;41.00
61292;BME280;47165;42.664;23.368;2023-05-29T09:45:42;94798.81;;;24.61;40.73
61292;BME280;47165;42.664;23.368;2023-05-29T09:48:14;94802.19;;;24.78;41.28
61292;BME280;47165;42.664;23.368;2023-05-29T09:50:40;94805.28;;;24.66;41.41
61292;BME280;47165;42.664;23.368;2023-05-29T09:53:21;94796.38;;;24.74;41.91
61292;BME280;47165;42.664;23.368;2023-05-29T09:55:48;94802.19;;;24.55;41.64
61292;BME280;47165;42.664;23.368;2023-05-29T09:58:21;94788.75;;;24.40;41.49
61292;BME280;47165;42.664;23.368;2023-05-29T10:00:48;94803.47;;;24.36;43.08
61292;BME280;47165;42.664;23.368;2023-05-29T10:03:14;94790.03;;;23.98;42.46
61292;BME280;47165;42.664;23.368;2023-05-29T10:05:41;94791.91;;;23.89;43.43
61292;BME280;47165;42.664;23.368;2023-05-29T10:08:15;94792.09;;;24.19;44.10
61292;BME280;47165;42.664;23.368;2023-05-29T10:10:45;94796.34;;;24.59;45.81
61292;BME280;47165;42.664;23.368;2023-05-29T10:13:15;94797.06;;;24.91;43.41
61292;BME280;47165;42.664;23.368;2023-05-29T10:15:43;94793.34;;;25.15;44.20
61292;BME280;47165;42.664;23.368;2023-05-29T10:18:20;94792.38;;;25.31;43.88
61292;BME280;47165;42.664;23.368;2023-05-29T10:20:48;94783.41;;;25.24;41.16
61292;BME280;47165;42.664;23.368;2023-05-29T10:23:18;94792.38;;;25.31;41.21
61292;BME280;47165;42.664;23.368;2023-05-29T10:25:48;94788.03;;;25.30;42.06
61292;BME280;47165;42.664;23.368;2023-05-29T10:28:16;94789.22;;;25.27;41.93
61292;BME280;47165;42.664;23.368;2023-05-29T10:30:54;94782.41;;;25.40;40.37
61292;BME280;47165;42.664;23.368;2023-05-29T10:33:21;94777.91;;;25.25;39.46
61292;BME280;47165;42.664;23.368;2023-05-29T10:36:16;94779.03;;;25.31;40.28
61292;BME280;47165;42.664;23.368;2023-05-29T10:38:46;94786.38;;;25.29;40.32
61292;BME280;47165;42.664;23.368;2023-05-29T10:43:57;94786.22;;;24.93;41.33
61292;BME280;47165;42.664;23.368;2023-05-29T10:49:17;94775.28;;;25.02;42.39
61292;BME280;47165;42.664;23.368;2023-05-29T10:51:42;94776.63;;;24.60;43.58
61292;BME280;47165;42.664;23.368;2023-05-29T10:54:08;94779.59;;;24.65;43.55
61292;BME280;47165;42.664;23.368;2023-05-29T10:56:34;94775.97;;;24.58;44.33
61292;BME280;47165;42.664;23.368;2023-05-29T10:59:00;94775.06;;;24.51;43.86
61292;BME280;47165;42.664;23.368;2023-05-29T11:01:30;94760.88;;;24.42;42.65
61292;BME280;47165;42.664;23.368;2023-05-29T11:06:43;94767.41;;;24.63;42.99
61292;BME280;47165;42.664;23.368;2023-05-29T11:09:28;94756.19;;;25.05;40.34
61292;BME280;47165;42.664;23.368;2023-05-29T11:12:11;94754.94;;;25.46;40.92
61292;BME280;47165;42.664;23.368;2023-05-29T11:14:45;94749.66;;;25.67;39.07
61292;BME280;47165;42.664;23.368;2023-05-29T11:17:31;94741.84;;;25.66;38.02
61292;BME280;47165;42.664;23.368;2023-05-29T11:20:00;94745.59;;;25.86;38.23
61292;BME280;47165;42.664;23.368;2023-05-29T11:22:41;94743.25;;;26.13;39.73
61292;BME280;47165;42.664;23.368;2023-05-29T11:25:14;94741.31;;;26.28;39.91
61292;BME280;47165;42.664;23.368;2023-05-29T11:27:40;94740.44;;;26.21;39.04
61292;BME280;47165;42.664;23.368;2023-05-29T11:30:06;94744.44;;;26.10;37.89
61292;BME280;47165;42.664;23.368;2023-05-29T11:32:34;94737.91;;;25.83;37.68
61292;BME280;47165;42.664;23.368;2023-05-29T11:35:09;94745.69;;;25.78;37.32
61292;BME280;47165;42.664;23.368;2023-05-29T11:37:37;94732.53;;;25.62;37.65
61292;BME280;47165;42.664;23.368;2023-05-29T11:40:04;94744.78;;;25.71;37.70
61292;BME280;47165;42.664;23.368;2023-05-29T11:42:34;94747.28;;;25.73;38.75
61292;BME280;47165;42.664;23.368;2023-05-29T11:45:20;94745.41;;;25.73;39.74
61292;BME280;47165;42.664;23.368;2023-05-29T11:47:57;94743.13;;;25.70;38.71
61292;BME280;47165;42.664;23.368;2023-05-29T11:52:49;94745.34;;;25.37;43.68
61292;BME280;47165;42.664;23.368;2023-05-29T11:55:17;94753.09;;;24.79;45.86
61292;BME280;47165;42.664;23.368;2023-05-29T11:57:44;94762.22;;;24.69;50.16
61292;BME280;47165;42.664;23.368;2023-05-29T12:00:13;94775.38;;;24.48;52.34
61292;BME280;47165;42.664;23.368;2023-05-29T12:02:39;94769.44;;;24.15;55.28
61292;BME280;47165;42.664;23.368;2023-05-29T12:05:05;94765.81;;;23.68;53.39
61292;BME280;47165;42.664;23.368;2023-05-29T12:07:34;94763.00;;;23.22;53.18
61292;BME280;47165;42.664;23.368;2023-05-29T12:10:11;94758.84;;;22.95;54.72
61292;BME280;47165;42.664;23.368;2023-05-29T12:12:36;94760.69;;;22.94;55.39
61292;BME280;47165;42.664;23.368;2023-05-29T12:15:02;94777.34;;;22.63;53.16
61292;BME280;47165;42.664;23.368;2023-05-29T12:17:31;94767.38;;;22.49;53.29
61292;BME280;47165;42.664;23.368;2023-05-29T12:19:56;94770.41;;;22.54;53.11
61292;BME280;47165;42.664;23.368;2023-05-29T12:22:38;94772.34;;;22.19;55.44
61292;BME280;47165;42.664;23.368;2023-05-29T12:25:09;94775.91;;;21.85;53.79
61292;BME280;47165;42.664;23.368;2023-05-29T12:27:35;94778.09;;;21.98;54.29
61292;BME280;47165;42.664;23.368;2023-05-29T12:30:10;94792.59;;;22.12;53.65
61292;BME280;47165;42.664;23.368;2023-05-29T12:32:39;94796.63;;;22.24;57.69
61292;BME280;47165;42.664;23.368;2023-05-29T12:35:14;94802.31;;;22.29;59.35
61292;BME280;47165;42.664;23.368;2023-05-29T12:37:47;94812.75;;;22.31;58.75
61292;BME280;47165;42.664;23.368;2023-05-29T12:40:25;94807.09;;;22.26;61.55
61292;BME280;47165;42.664;23.368;2023-05-29T12:42:56;94810.56;;;22.18;61.14
61292;BME280;47165;42.664;23.368;2023-05-29T12:45:24;94806.91;;;22.11;58.98
61292;BME280;47165;42.664;23.368;2023-05-29T12:47:54;94797.53;;;21.90;54.95
61292;BME280;47165;42.664;23.368;2023-05-29T12:50:22;94796.13;;;21.62;55.10
61292;BME280;47165;42.664;23.368;2023-05-29T12:53:02;94788.41;;;21.50;54.82
61292;BME280;47165;42.664;23.368;2023-05-29T12:55:28;94783.00;;;21.34;54.87
61292;BME280;47165;42.664;23.368;2023-05-29T12:57:55;94781.78;;;21.55;54.94
61292;BME280;47165;42.664;23.368;2023-05-29T13:00:21;94778.47;;;21.53;55.21
61292;BME280;47165;42.664;23.368;2023-05-29T13:02:48;94784.00;;;21.76;55.29
61292;BME280;47165;42.664;23.368;2023-05-29T13:05:14;94782.94;;;21.95;56.31
61292;BME280;47165;42.664;23.368;2023-05-29T13:07:41;94783.34;;;22.49;55.18
61292;BME280;47165;42.664;23.368;2023-05-29T13:10:07;94773.53;;;22.74;54.57